Carrabassett Regional Airport (B21)
Carrabassett, ME
Field Elevation: 874
Lat: 45°05.12N  Long: 70°12.98W
CTAF/Unicom Freq: 122.8000
   
    
Weather Advisories
2022-12-04   11:12 Z
Altimeter 29.98" Hg
Wind 350° @ 8 KT
Gusts 21 KT
Visibility 10 SM
Temperature -1° C (30° F)
Dewpoint -11° C (12° F)
Relative Humidity 48%
Density Altitude --
Condensation Altitude 5,900 feet
Wind Chill: -6° C (21° F)
Wind and Runways
Indicated Runway = 35
Headwind = 8 kt
Crosswind = 0 kt
History
 
 
 
More Info
NOAA Forecast
 
 
About Us
Belfort Instrument
 
 
FAA Disclaimer: The data displayed is for advisory purposes only and is not to be used for flight planning or operations. For official data, please call (not available) to hear the current automated AWOS voice message.
  METAR B21 041112Z AUTO 35008G21KT 10 SM M01/M11 A2998